• Join FlightAware (Why Join?)
  • Login
  • US Flag 
05:37PM EDT


 

Airport Tracker/Info


-or-


 

Live Flight TrackerFlight Track Log ✈ AMF1990 ✈ 06-Dec-2013 ✈ KCRP - KMAF

Flight Track Log - Related Links

Times and Time Zones

All times are in EST time to prevent confusion due to time zone crossing. See the AMF1990 flight status page for this flight to view local times or setup timezone preferences in your user account.

Time Position Orientation Groundspeed Altitude Reporting Facility
EST Latitude Longitude Course Direction KTS MPH feet Rate Location/Type
06:08PM 29.2758 -99.0375 317° Northwest 250 288 19,900  Level Fort Worth Center
06:09PM 29.3269 -99.0919 317° Northwest 251 289 20,000  Climbing Fort Worth Center
06:10PM 29.3825 -99.1608 313° West 246 283 20,000  Level Fort Worth Center
06:12PM 29.4372 -99.2131 320° Northwest 256 295 20,100  Climbing Houston Center
06:13PM 29.4878 -99.2739 314° West 248 285 20,000 -60 Descending Houston Center
06:14PM 29.5410 -99.4259 317° Northwest  Level Estimated
06:14PM 29.5325 -99.3333 311° West 246 283 20,000  Level Houston Center
06:15PM 29.5797 -99.3842 317° Northwest 252 290 20,000  Level Houston Center
06:16PM 29.6308 -99.4389 317° Northwest 253 291 20,000  Level Houston Center
06:17PM 29.6803 -99.4956 315° West 252 290 20,100  Climbing Houston Center
06:18PM 29.7394 -99.5656 314° West 256 295 20,000 -60 Descending Houston Center
06:19PM 29.7872 -99.6233 314° West 252 290 20,000  Level Houston Center
06:21PM 29.8725 -99.7220 315° West  Level Estimated
06:28PM 30.2063 -100.1111 315° West  Level Estimated
06:29PM 30.2539 -100.1669 315° West  Level Estimated
06:30PM 30.3015 -100.2228 315° West  Level Estimated
06:31PM 30.3491 -100.2787 315° West  Level Estimated
06:32PM 30.3966 -100.3346 315° West  Level Estimated
06:33PM 30.4441 -100.3907 315° West  Level Estimated
06:34PM 30.4916 -100.4467 315° West  Level Estimated
06:35PM 30.5390 -100.5029 314° West  Level Estimated
06:36PM 30.5865 -100.5590 314° West  Level Estimated
06:37PM 30.6339 -100.6153 314° West  Level Estimated
06:38PM 30.6812 -100.6715 314° West  Level Estimated
06:39PM 30.7286 -100.7279 314° West  Level Estimated
06:40PM 30.7759 -100.7843 314° West  Level Estimated
06:41PM 30.8232 -100.8408 314° West  Level Estimated
06:42PM 30.8705 -100.8973 314° West  Level Estimated
06:43PM 30.9178 -100.9538 314° West  Level Estimated
06:44PM 30.9650 -101.0105 314° West  Level Estimated
06:45PM 31.0123 -101.0671 314° West  Level Estimated
06:46PM 31.0594 -101.1239 314° West  Level Estimated
06:47PM 31.1066 -101.1807 314° West  Level Estimated
06:48PM 31.1537 -101.2375 314° West  Level Estimated
06:49PM 31.2008 -101.2944 314° West  Level Estimated
06:50PM 31.2479 -101.3514 314° West  Level Estimated
06:51PM 31.2950 -101.4084 314° West  Level Estimated
06:52PM 31.3420 -101.4655 314° West  Level Estimated
06:53PM 31.3890 -101.5226 314° West  Level Estimated
06:54PM 31.4360 -101.5798 314° West  Level Estimated
06:55PM 31.4830 -101.6370 314° West  Level Estimated
06:56PM 31.5299 -101.6943 314° West  Level Estimated
06:57PM 31.5769 -101.7517 314° West  Level Estimated
06:58PM 31.6237 -101.8091 314° West  Level Estimated
06:59PM 31.6706 -101.8666 314° West  Level Estimated
07:00PM 31.7174 -101.9241 314° West  Level Estimated
07:01PM 31.7642 -101.9817 314° West  Level Estimated
07:02PM 31.8110 -102.0394 314° West  Level Estimated
07:03PM 31.8578 -102.0971 314° West  Level Estimated
07:04PM 31.9045 -102.1548 314° West  Level Estimated
07:05PM 31.9425 -102.2019 314° West  Level Estimated
07:06PM 31.9425 -102.2019 128° Southeast  Level Estimated
07:07PM 31.9425 -102.2019 128° Southeast  Level Estimated
07:08PM 31.9425 -102.2019 128° Southeast  Level Estimated
07:09PM 31.9425 -102.2019 128° Southeast  Level Estimated
07:10PM 31.9425 -102.2019 128° Southeast  Level Estimated
07:11PM 31.9425 -102.2019 128° Southeast  Level Estimated
07:12PM 31.9425 -102.2019 128° Southeast  Level Estimated
07:13PM 31.9425 -102.2019 128° Southeast  Level Estimated
07:14PM 31.9425 -102.2019 128° Southeast  Level Estimated
07:15PM 31.9425 -102.2019 128° Southeast  Level Estimated
07:16PM 31.9425 -102.2019 128° Southeast  Level Estimated
07:17PM 31.9425 -102.2019 128° Southeast  Level Estimated
07:18PM 31.9425 -102.2019 128° Southeast  Level Estimated
07:19PM 31.9425 -102.2019 128° Southeast  Level Estimated